Time;durP1;ratioP1;P1;durP2;ratioP2;P2;SDS_P1;SDS_P2;PMS_P1;PMS_P2;Temp;Humidity;BMP_temperature;BMP_pressure;BME280_temperature;BME280_humidity;BME280_pressure;Samples;Min_cycle;Max_cycle;Signal;HPM_P1;HPM_P2
2022/08/23 00:01:59;;;;;;;5.93;2.78;;;19.40;99.90;;;;;;4956411;28;20035;-73
2022/08/23 00:04:33;;;;;;;4.00;2.40;;;19.20;99.90;;;;;;4956530;28;20059;-74
2022/08/23 00:07:00;;;;;;;6.97;3.00;;;19.30;99.90;;;;;;4955862;28;20184;-73
2022/08/23 00:09:27;;;;;;;5.45;2.47;;;19.20;99.90;;;;;;4956389;28;20031;-73
2022/08/23 00:11:55;;;;;;;3.75;2.78;;;19.30;99.90;;;;;;4955952;28;20050;-73
2022/08/23 00:14:27;;;;;;;4.03;2.85;;;19.30;99.90;;;;;;4955452;28;20033;-73
2022/08/23 00:16:54;;;;;;;7.43;3.30;;;19.10;99.90;;;;;;4955810;28;20078;-71
2022/08/23 00:19:21;;;;;;;6.32;2.80;;;19.10;99.90;;;;;;4956169;28;20043;-73
2022/08/23 00:21:49;;;;;;;7.00;3.30;;;19.10;99.90;;;;;;4956279;28;20094;-74
2022/08/23 00:24:16;;;;;;;4.18;2.65;;;19.10;99.90;;;;;;4956095;28;20034;-74
2022/08/23 00:26:48;;;;;;;3.45;2.35;;;19.20;99.90;;;;;;4955388;28;20031;-73
2022/08/23 00:29:14;;;;;;;4.45;2.63;;;19.30;99.90;;;;;;4955832;28;20451;-73
2022/08/23 00:31:40;;;;;;;6.00;2.75;;;19.20;99.90;;;;;;4970634;28;20051;-74
2022/08/23 00:34:06;;;;;;;3.30;2.72;;;19.20;99.90;;;;;;4969308;28;20086;-73
2022/08/23 00:36:32;;;;;;;4.47;2.85;;;19.30;99.90;;;;;;4983287;28;20027;-73
2022/08/23 00:38:58;;;;;;;6.38;2.90;;;19.30;99.90;;;;;;4954349;28;20105;-70
2022/08/23 00:41:24;;;;;;;3.53;2.60;;;19.30;99.90;;;;;;4955860;28;20505;-72
2022/08/23 00:49:39;;;;;;;4.55;2.88;;;19.20;99.90;;;;;;4968630;28;20033;-72
2022/08/23 00:52:11;;;;;;;4.30;2.63;;;19.20;99.90;;;;;;4970156;28;20107;-72
2022/08/23 00:54:40;;;;;;;4.78;2.75;;;19.10;99.90;;;;;;4953829;28;20034;-71
2022/08/23 00:57:13;;;;;;;5.68;2.20;;;19.00;99.90;;;;;;4969801;28;20031;-73
2022/08/23 00:59:39;;;;;;;2.35;2.08;;;20.80;99.90;;;;;;4955323;29;20406;-73
2022/08/23 01:02:07;;;;;;;4.50;2.78;;;19.10;99.90;;;;;;4955552;28;20019;-73
2022/08/23 01:04:38;;;;;;;5.82;2.60;;;19.10;99.90;;;;;;4954298;28;20385;-73
2022/08/23 01:07:24;;;;;;;3.97;3.20;;;19.10;99.90;;;;;;4986416;28;20098;-73
2022/08/23 01:09:54;;;;;;;4.57;2.20;;;19.00;99.90;;;;;;4954742;28;20071;-73
2022/08/23 01:12:34;;;;;;;6.38;2.85;;;19.00;99.90;;;;;;4983715;28;20116;-72
2022/08/23 01:15:09;;;;;;;6.25;2.85;;;19.10;99.90;;;;;;4953691;28;20031;-72
2022/08/23 01:17:48;;;;;;;3.72;2.83;;;19.00;99.90;;;;;;4953340;28;20042;-73
2022/08/23 01:20:21;;;;;;;3.40;2.35;;;19.10;99.90;;;;;;4952085;28;20042;-73
2022/08/23 01:22:54;;;;;;;;;;;19.00;99.90;;;;;;4982615;28;20162;-73
2022/08/23 01:25:23;;;;;;;4.32;2.60;;;18.90;99.90;;;;;;4968454;28;20008;-73
2022/08/23 01:27:49;;;;;;;4.72;3.42;;;19.00;99.90;;;;;;4984632;28;20030;-70
2022/08/23 01:30:20;;;;;;;4.55;2.88;;;18.90;99.90;;;;;;4984822;28;20601;-68
2022/08/23 01:32:51;;;;;;;4.57;3.00;;;18.90;99.90;;;;;;4984544;28;20486;-72
2022/08/23 01:35:19;;;;;;;4.95;2.80;;;19.00;99.90;;;;;;4984549;28;20367;-73
2022/08/23 01:37:45;;;;;;;3.63;2.58;;;18.80;99.90;;;;;;4983691;28;20031;-73
2022/08/23 01:40:12;;;;;;;4.82;2.83;;;18.90;99.90;;;;;;4984545;28;20039;-72
2022/08/23 01:42:40;;;;;;;4.30;2.50;;;18.80;99.90;;;;;;4980611;28;20019;-72
2022/08/23 01:45:16;;;;;;;3.92;2.33;;;18.80;99.90;;;;;;4985734;28;20134;-73
2022/08/23 01:47:43;;;;;;;6.03;3.10;;;18.90;99.90;;;;;;4953427;28;20114;-69
2022/08/23 01:50:11;;;;;;;4.10;2.63;;;18.80;99.90;;;;;;4957233;28;20553;-73
2022/08/23 01:52:39;;;;;;;2.65;2.17;;;18.80;99.90;;;;;;4954793;28;20058;-72
2022/08/23 01:55:05;;;;;;;6.03;2.80;;;18.80;99.90;;;;;;4979080;28;20046;-72
2022/08/23 01:57:32;;;;;;;8.38;2.88;;;18.80;99.90;;;;;;4953553;29;20122;-74
2022/08/23 02:00:01;;;;;;;4.88;2.17;;;18.80;99.90;;;;;;4952996;28;20094;-73
2022/08/23 02:02:28;;;;;;;6.32;2.83;;;18.80;99.90;;;;;;4954524;28;20036;-74
2022/08/23 02:04:54;;;;;;;2.63;2.05;;;18.80;99.90;;;;;;4969410;28;20125;-73
2022/08/23 02:07:24;;;;;;;7.93;2.65;;;18.80;99.90;;;;;;4952869;28;20032;-70
2022/08/23 02:09:50;;;;;;;5.28;2.72;;;18.80;99.90;;;;;;4954146;28;20359;-73
2022/08/23 02:12:16;;;;;;;5.68;2.97;;;18.80;99.90;;;;;;4969814;28;20027;-73
2022/08/23 02:14:42;;;;;;;4.22;2.72;;;18.80;99.90;;;;;;4955376;28;20051;-73
2022/08/23 02:17:17;;;;;;;3.22;2.50;;;18.90;99.90;;;;;;4970775;28;20027;-73
2022/08/23 02:19:44;;;;;;;4.65;3.00;;;18.90;99.90;;;;;;4964531;28;20106;-73
2022/08/23 02:22:11;;;;;;;4.32;2.72;;;18.90;99.90;;;;;;4972159;28;20032;-66
2022/08/23 02:24:43;;;;;;;3.83;2.47;;;18.90;99.90;;;;;;4954455;28;20035;-72
2022/08/23 02:27:10;;;;;;;6.40;3.42;;;18.90;99.90;;;;;;4953217;29;20023;-71
2022/08/23 02:29:43;;;;;;;5.60;3.00;;;18.90;99.90;;;;;;4969264;28;20482;-73
2022/08/23 02:32:12;;;;;;;4.88;2.78;;;18.80;99.90;;;;;;4961948;28;20478;-72
2022/08/23 02:34:38;;;;;;;5.18;2.65;;;18.70;99.90;;;;;;4985370;28;20385;-70
2022/08/23 02:37:06;;;;;;;4.72;2.83;;;18.80;99.90;;;;;;4954292;28;20368;-73
2022/08/23 02:39:32;;;;;;;4.63;2.92;;;18.60;99.90;;;;;;4968704;28;20477;-73
2022/08/23 02:41:59;;;;;;;4.82;3.03;;;18.70;99.90;;;;;;4985165;28;20050;-73
2022/08/23 02:44:29;;;;;;;4.35;2.72;;;18.80;99.90;;;;;;4968901;28;20130;-74
2022/08/23 02:46:55;;;;;;;3.80;2.65;;;18.80;99.90;;;;;;4953160;28;20047;-74
2022/08/23 02:49:21;;;;;;;3.92;3.15;;;18.80;99.90;;;;;;4971534;28;20031;-74
2022/08/23 02:51:47;;;;;;;6.45;3.20;;;18.80;99.90;;;;;;4989116;28;20034;-73
2022/08/23 02:54:13;;;;;;;8.35;3.53;;;18.80;99.90;;;;;;4972146;28;20031;-72
2022/08/23 02:56:39;;;;;;;7.22;3.28;;;18.80;99.90;;;;;;4957853;28;20054;-73
2022/08/23 02:59:06;;;;;;;5.93;3.65;;;18.80;99.90;;;;;;4968656;28;20435;-73
2022/08/23 03:01:36;;;;;;;5.30;3.10;;;18.80;99.90;;;;;;4972453;28;20077;-73
2022/08/23 03:04:20;;;;;;;4.15;2.80;;;18.80;99.90;;;;;;4988121;28;20028;-68
2022/08/23 03:06:47;;;;;;;5.18;3.30;;;18.80;99.90;;;;;;4955970;29;20565;-73
2022/08/23 03:09:13;;;;;;;8.45;3.85;;;18.90;99.90;;;;;;4963264;28;20462;-73
2022/08/23 03:11:43;;;;;;;6.80;3.40;;;18.90;99.90;;;;;;4961723;28;20034;-71
2022/08/23 03:14:09;;;;;;;6.70;4.22;;;18.90;99.90;;;;;;4956109;29;20028;-73
2022/08/23 03:16:35;;;;;;;6.97;4.05;;;18.80;99.90;;;;;;4972428;28;20385;-73
2022/08/23 03:19:03;;;;;;;7.72;3.05;;;18.80;99.90;;;;;;4955484;28;20482;-73
2022/08/23 03:21:30;;;;;;;8.38;3.63;;;18.80;99.90;;;;;;4957241;28;20394;-73
2022/08/23 03:23:55;;;;;;;3.85;2.92;;;18.80;99.90;;;;;;4959354;28;20023;-73
2022/08/23 03:26:22;;;;;;;4.88;3.15;;;18.70;99.90;;;;;;4988315;28;20117;-73
2022/08/23 03:28:48;;;;;;;5.30;3.15;;;18.70;99.90;;;;;;4955860;28;20039;-72
2022/08/23 03:31:15;;;;;;;8.05;3.15;;;18.70;99.90;;;;;;4971408;28;20032;-69
2022/08/23 03:33:58;;;;;;;7.35;3.45;;;18.70;99.90;;;;;;4984077;28;20047;-73
2022/08/23 03:36:25;;;;;;;7.13;3.28;;;18.80;99.90;;;;;;4987937;28;20082;-73
2022/08/23 03:38:51;;;;;;;5.90;2.88;;;18.80;99.90;;;;;;4971232;28;20114;-73
2022/08/23 03:41:18;;;;;;;6.47;3.25;;;18.70;99.90;;;;;;4987476;28;20062;-68
2022/08/23 03:43:44;;;;;;;4.88;3.50;;;18.70;99.90;;;;;;4956589;28;20474;-74
2022/08/23 03:46:21;;;;;;;6.68;3.70;;;18.80;99.90;;;;;;4987158;28;20037;-74
2022/08/23 03:48:54;;;;;;;3.92;3.22;;;18.80;99.90;;;;;;4987535;28;20075;-74
2022/08/23 03:51:23;;;;;;;5.80;3.08;;;18.80;99.90;;;;;;4954988;28;20498;-73
2022/08/23 03:53:49;;;;;;;5.78;2.95;;;18.70;99.90;;;;;;4954876;28;20062;-73
2022/08/23 03:56:34;;;;;;;4.75;2.97;;;18.60;99.90;;;;;;4969058;28;20058;-74
2022/08/23 03:59:04;;;;;;;8.15;3.80;;;18.70;99.90;;;;;;4962074;28;20520;-74
2022/08/23 04:01:29;;;;;;;4.60;3.22;;;18.70;99.90;;;;;;4985325;28;20430;-74
2022/08/23 04:03:58;;;;;;;13.70;3.95;;;18.70;99.90;;;;;;4955439;28;20035;-74
2022/08/23 04:06:27;;;;;;;6.72;3.53;;;18.70;99.90;;;;;;4955014;29;20375;-75
2022/08/23 04:08:53;;;;;;;6.82;4.00;;;18.70;99.90;;;;;;4970891;28;20529;-74
2022/08/23 04:11:20;;;;;;;4.13;3.03;;;18.70;99.90;;;;;;4955471;28;20035;-74
2022/08/23 04:13:54;;;;;;;7.82;3.80;;;18.50;99.90;;;;;;4986934;28;20031;-71
2022/08/23 04:16:20;;;;;;;10.25;4.53;;;18.60;99.90;;;;;;4955946;28;20114;-73
2022/08/23 04:18:46;;;;;;;10.40;3.65;;;18.40;99.90;;;;;;4969923;28;20110;-73
2022/08/23 04:21:19;;;;;;;5.85;3.63;;;18.40;99.90;;;;;;4953964;28;20047;-72
2022/08/23 04:23:46;;;;;;;8.35;4.25;;;18.40;99.90;;;;;;4955720;28;20019;-71
2022/08/23 04:26:13;;;;;;;8.43;4.45;;;18.20;99.90;;;;;;4955528;28;20055;-69
2022/08/23 04:28:40;;;;;;;10.13;3.72;;;18.10;99.90;;;;;;4954465;29;20035;-73
2022/08/23 04:31:06;;;;;;;15.52;5.28;;;18.20;99.90;;;;;;4986552;28;20019;-72
2022/08/23 04:33:34;;;;;;;9.65;4.55;;;18.10;99.90;;;;;;4953387;29;20442;-73
2022/08/23 04:36:00;;;;;;;7.57;4.43;;;18.20;99.90;;;;;;4969968;28;20031;-72
2022/08/23 04:38:27;;;;;;;6.88;4.22;;;18.10;99.90;;;;;;4955803;28;20035;-72
2022/08/23 04:43:45;;;;;;;6.13;3.90;;;18.10;99.90;;;;;;4953618;29;20035;-73
2022/08/23 04:46:14;;;;;;;7.22;3.95;;;18.20;99.90;;;;;;4953600;28;20047;-73
2022/08/23 04:48:45;;;;;;;7.15;4.13;;;18.10;99.90;;;;;;4986498;28;20034;-73
2022/08/23 04:51:11;;;;;;;6.32;3.88;;;18.10;99.90;;;;;;4953747;29;20114;-73
2022/08/23 04:53:38;;;;;;;10.27;4.20;;;18.20;99.90;;;;;;4969524;28;20035;-73
2022/08/23 04:56:33;;;;;;;6.28;3.90;;;18.20;99.90;;;;;;4954808;29;20054;-73
2022/08/23 04:59:00;;;;;;;7.07;4.72;;;18.30;99.90;;;;;;4954135;28;20074;-74
2022/08/23 05:01:26;;;;;;;11.13;5.00;;;18.40;99.90;;;;;;4969853;28;20436;-68
2022/08/23 05:03:54;;;;;;;7.32;4.20;;;18.40;99.90;;;;;;4966030;28;20115;-73
2022/08/23 05:06:20;;;;;;;8.52;4.00;;;18.60;99.90;;;;;;4969881;28;20145;-73
2022/08/23 05:08:47;;;;;;;6.53;4.43;;;18.60;99.90;;;;;;4953726;29;20158;-72
2022/08/23 05:11:14;;;;;;;7.55;4.68;;;18.50;99.90;;;;;;4953685;28;20046;-73
2022/08/23 05:13:40;;;;;;;8.48;4.75;;;18.60;99.90;;;;;;4952372;28;20035;-73
2022/08/23 05:16:09;;;;;;;7.55;5.20;;;18.60;99.90;;;;;;4969493;28;20186;-72
2022/08/23 05:18:40;;;;;;;9.48;5.00;;;18.60;99.90;;;;;;4966886;28;20027;-73
2022/08/23 05:21:06;;;;;;;7.65;4.65;;;18.70;99.90;;;;;;4953539;29;20043;-73
2022/08/23 05:23:33;;;;;;;9.10;4.75;;;18.80;99.90;;;;;;4954533;28;20038;-73
2022/08/23 05:26:02;;;;;;;17.65;5.82;;;18.80;99.90;;;;;;4985408;28;20038;-72
2022/08/23 05:28:38;;;;;;;13.60;5.30;;;18.90;99.90;;;;;;4982927;28;20038;-73
2022/08/23 05:31:08;;;;;;;8.88;4.82;;;18.90;99.90;;;;;;4985737;28;20381;-73
2022/08/23 05:33:54;;;;;;;9.70;5.90;;;18.90;99.90;;;;;;4954462;28;20035;-73
2022/08/23 05:36:59;;;;;;;7.78;5.47;;;19.10;99.90;;;;;;4951911;29;20035;-74
2022/08/23 05:39:37;;;;;;;10.20;5.60;;;19.20;99.90;;;;;;4952047;28;20062;-73
2022/08/23 05:42:11;;;;;;;8.40;4.97;;;19.10;99.90;;;;;;4935820;29;20074;-68
2022/08/23 05:44:37;;;;;;;9.02;5.15;;;19.00;99.90;;;;;;4935368;29;20166;-74
2022/08/23 05:47:06;;;;;;;8.63;5.80;;;19.10;99.90;;;;;;4936062;29;20035;-63
2022/08/23 05:49:36;;;;;;;6.35;4.47;;;19.10;99.90;;;;;;4936025;29;20520;-73
2022/08/23 05:52:03;;;;;;;7.75;4.95;;;19.00;99.90;;;;;;4936147;29;20035;-73
2022/08/23 05:54:32;;;;;;;9.43;5.13;;;19.20;99.90;;;;;;4935211;28;20078;-70
2022/08/23 05:57:33;;;;;;;7.97;4.97;;;19.10;99.90;;;;;;4935998;29;20069;-74
2022/08/23 05:59:59;;;;;;;10.45;5.13;;;19.30;99.90;;;;;;4935236;29;20059;-74
2022/08/23 06:02:25;;;;;;;12.82;6.00;;;19.40;99.90;;;;;;4931167;29;20099;-74
2022/08/23 06:04:51;;;;;;;10.45;5.72;;;19.40;99.90;;;;;;4938719;28;20036;-74
2022/08/23 06:07:17;;;;;;;8.48;5.65;;;19.50;99.90;;;;;;4952728;29;20046;-73
2022/08/23 06:09:43;;;;;;;7.35;5.03;;;19.70;99.90;;;;;;4969104;28;20028;-74
2022/08/23 06:12:09;;;;;;;9.23;5.85;;;19.90;99.90;;;;;;4985153;28;20117;-74
2022/08/23 06:14:37;;;;;;;8.60;5.50;;;20.00;99.90;;;;;;4984603;28;20035;-74
2022/08/23 06:17:04;;;;;;;9.82;5.32;;;20.00;99.90;;;;;;4954422;28;20079;-74
2022/08/23 06:19:30;;;;;;;9.10;5.10;;;20.10;99.90;;;;;;4984895;28;20027;-75
2022/08/23 06:22:14;;;;;;;13.40;6.53;;;20.00;99.90;;;;;;4954089;29;20042;-75
2022/08/23 06:24:41;;;;;;;13.18;5.22;;;20.00;99.90;;;;;;4956202;28;20027;-75
2022/08/23 06:27:16;;;;;;;8.45;4.88;;;20.10;99.90;;;;;;4957956;28;20031;-75
2022/08/23 06:29:42;;;;;;;10.40;5.07;;;20.10;99.90;;;;;;4988749;28;20043;-74
2022/08/23 06:32:26;;;;;;;9.18;6.03;;;20.20;99.90;;;;;;4958254;28;20042;-75
2022/08/23 06:35:22;;;;;;;13.25;7.40;;;20.20;99.90;;;;;;4974358;28;20043;-73
2022/08/23 06:38:05;;;;;;;8.10;5.68;;;20.10;99.90;;;;;;4972158;28;20065;-75
2022/08/23 06:41:10;;;;;;;11.18;6.55;;;19.90;99.90;;;;;;4957723;28;20757;-71
2022/08/23 06:43:58;;;;;;;8.80;5.75;;;20.00;99.90;;;;;;4954586;29;20107;-74
2022/08/23 06:46:32;;;;;;;11.38;6.22;;;20.00;99.90;;;;;;4955645;29;20047;-74
2022/08/23 06:48:59;;;;;;;9.45;5.97;;;19.90;99.90;;;;;;4955714;28;20470;-74
2022/08/23 06:51:31;;;;;;;9.75;6.40;;;20.00;99.90;;;;;;4955265;28;20496;-75
2022/08/23 06:54:30;;;;;;;9.20;6.20;;;20.00;99.90;;;;;;4940309;29;20426;-75
2022/08/23 06:57:05;;;;;;;8.68;5.80;;;20.10;99.90;;;;;;4955249;29;20035;-73
2022/08/23 06:59:44;;;;;;;9.23;5.68;;;20.00;99.90;;;;;;4955297;29;20043;-75
2022/08/23 07:02:29;;;;;;;12.75;6.70;;;20.00;99.90;;;;;;4954743;29;20152;-75
2022/08/23 07:04:55;;;;;;;11.32;6.93;;;20.10;99.90;;;;;;4953715;28;20027;-75
2022/08/23 07:07:41;;;;;;;10.98;5.88;;;20.10;99.90;;;;;;4938196;28;20050;-75
2022/08/23 07:10:08;;;;;;;12.07;6.68;;;20.10;99.90;;;;;;4954003;28;20058;-75
2022/08/23 07:12:39;;;;;;;10.00;6.28;;;20.00;99.90;;;;;;4919248;29;20036;-75
2022/08/23 07:15:06;;;;;;;13.05;6.53;;;20.00;99.90;;;;;;4913436;29;20047;-74
2022/08/23 07:17:31;;;;;;;12.90;6.88;;;19.90;99.90;;;;;;4916133;29;20176;-75
2022/08/23 07:19:57;;;;;;;10.55;6.18;;;20.10;99.90;;;;;;4919222;29;20183;-75
2022/08/23 07:22:24;;;;;;;10.20;6.68;;;20.10;99.90;;;;;;4955724;28;20050;-73
2022/08/23 07:24:50;;;;;;;14.48;7.60;;;20.20;99.90;;;;;;4956462;28;20081;-75
2022/08/23 07:27:19;;;;;;;12.05;6.95;;;20.30;99.90;;;;;;4968544;28;20481;-75
2022/08/23 07:30:06;;;;;;;10.23;6.70;;;20.20;99.90;;;;;;4956221;28;20039;-75
2022/08/23 07:32:34;;;;;;;12.48;7.07;;;20.10;99.90;;;;;;4955126;28;20034;-75
2022/08/23 07:35:11;;;;;;;9.25;6.40;;;20.20;99.90;;;;;;4954465;28;20031;-74
2022/08/23 07:37:41;;;;;;;10.77;6.93;;;20.30;99.90;;;;;;4987883;28;20393;-75
2022/08/23 07:40:08;;;;;;;10.73;6.32;;;20.30;99.90;;;;;;4954843;28;20544;-74
2022/08/23 07:42:35;;;;;;;9.98;6.57;;;20.30;99.90;;;;;;4971536;28;20030;-74
2022/08/23 07:45:02;;;;;;;10.48;6.20;;;20.40;99.90;;;;;;4956572;28;20047;-75
2022/08/23 07:47:31;;;;;;;7.45;4.80;;;20.30;99.90;;;;;;4955791;28;20118;-75
2022/08/23 07:49:58;;;;;;;9.50;5.07;;;20.20;99.90;;;;;;4955475;28;20035;-74
2022/08/23 07:52:24;;;;;;;11.23;5.80;;;20.20;99.90;;;;;;4968583;28;20030;-75
2022/08/23 07:54:50;;;;;;;10.95;5.32;;;20.30;99.90;;;;;;4986990;28;20078;-75
2022/08/23 07:57:48;;;;;;;10.15;5.43;;;20.40;99.90;;;;;;4954290;28;20043;-75
2022/08/23 08:00:40;;;;;;;8.67;5.57;;;20.40;99.90;;;;;;4941166;29;20095;-75
2022/08/23 08:03:26;;;;;;;7.72;4.85;;;20.40;99.90;;;;;;4953948;28;20348;-75
2022/08/23 08:06:08;;;;;;;7.75;5.18;;;20.40;99.90;;;;;;4954077;28;20035;-75
2022/08/23 08:08:34;;;;;;;14.00;6.68;;;20.30;99.90;;;;;;4953370;28;20089;-75
2022/08/23 08:11:00;;;;;;;6.53;4.78;;;20.30;99.90;;;;;;4936133;28;20502;-75
2022/08/23 08:13:26;;;;;;;8.85;5.20;;;20.40;99.90;;;;;;4968546;28;20474;-75
2022/08/23 08:15:52;;;;;;;9.77;5.40;;;20.40;99.90;;;;;;4937628;29;20118;-74
2022/08/23 08:18:19;;;;;;;11.35;5.80;;;20.20;99.90;;;;;;4953919;28;20035;-73
2022/08/23 08:21:14;;;;;;;9.95;5.30;;;20.30;99.90;;;;;;4964870;28;20134;-75
2022/08/23 08:23:57;;;;;;;6.13;4.07;;;20.40;99.90;;;;;;4936186;29;20027;-74
2022/08/23 08:26:41;;;;;;;7.65;4.35;;;20.40;99.90;;;;;;4969578;28;20047;-74
2022/08/23 08:29:10;;;;;;;7.72;4.65;;;20.40;99.90;;;;;;4953182;28;20031;-75
2022/08/23 08:31:38;;;;;;;6.35;4.03;;;20.40;99.90;;;;;;4953672;28;20034;-75
2022/08/23 08:34:08;;;;;;;5.43;3.72;;;20.40;99.90;;;;;;4954184;28;20134;-75
2022/08/23 08:36:35;;;;;;;5.90;4.10;;;20.40;99.90;;;;;;4954578;29;20114;-74
2022/08/23 08:39:06;;;;;;;5.93;3.40;;;20.30;99.90;;;;;;4986574;28;20127;-74
2022/08/23 08:41:39;;;;;;;8.20;3.90;;;20.40;99.90;;;;;;4953813;29;20046;-75
2022/08/23 08:44:25;;;;;;;5.03;3.60;;;20.40;99.90;;;;;;4954162;28;20047;-75
2022/08/23 08:46:56;;;;;;;5.30;3.80;;;20.50;99.90;;;;;;4934431;29;20103;-75
2022/08/23 08:49:48;;;;;;;4.55;3.42;;;20.40;99.90;;;;;;4933769;29;20126;-75
2022/08/23 08:52:29;;;;;;;5.85;3.65;;;20.50;99.90;;;;;;4933592;29;20491;-74
2022/08/23 08:55:08;;;;;;;6.00;3.55;;;20.50;99.90;;;;;;4918115;29;20035;-74
2022/08/23 08:57:40;;;;;;;6.95;4.30;;;20.40;99.90;;;;;;4933723;29;20100;-74
2022/08/23 09:00:13;;;;;;;8.85;4.97;;;20.50;99.90;;;;;;4917691;29;20028;-75
2022/08/23 09:02:42;;;;;;;11.35;5.38;;;20.50;99.90;;;;;;4942193;29;20034;-75
2022/08/23 09:05:13;;;;;;;9.82;5.22;;;20.50;99.90;;;;;;4917286;29;20110;-70
2022/08/23 09:07:43;;;;;;;8.77;5.18;;;20.50;99.90;;;;;;4917219;29;20063;-74
2022/08/23 09:10:41;;;;;;;7.63;4.68;;;20.50;99.90;;;;;;4933115;28;20391;-74
2022/08/23 09:13:36;;;;;;;8.98;5.38;;;20.60;99.90;;;;;;4933533;29;20482;-75
2022/08/23 09:16:02;;;;;;;;;;;20.60;99.90;;;;;;4933794;29;20039;-74
2022/08/23 09:18:33;;;;;;;9.27;4.97;;;20.60;99.90;;;;;;4932950;29;19958;-73
2022/08/23 09:21:00;;;;;;;6.60;4.30;;;20.60;99.90;;;;;;4933848;29;20375;-74
2022/08/23 09:23:39;;;;;;;7.43;4.90;;;20.50;99.90;;;;;;4926014;29;20031;-73
2022/08/23 09:26:29;;;;;;;8.18;4.70;;;20.60;99.90;;;;;;4986548;28;20039;-75
2022/08/23 09:29:10;;;;;;;6.00;4.38;;;20.60;99.90;;;;;;4952694;28;20075;-72
2022/08/23 09:31:44;;;;;;;9.73;5.53;;;20.50;99.90;;;;;;4953450;29;20032;-75
2022/08/23 09:34:21;;;;;;;10.98;6.10;;;20.50;99.90;;;;;;4953183;29;20031;-76
2022/08/23 09:37:18;;;;;;;11.38;5.68;;;20.40;99.90;;;;;;4954714;28;20038;-76
2022/08/23 09:40:11;;;;;;;9.48;5.80;;;20.40;99.90;;;;;;4952891;29;20031;-76
2022/08/23 09:42:39;;;;;;;10.32;5.82;;;20.40;99.90;;;;;;4952918;29;20031;-75
2022/08/23 09:45:34;;;;;;;9.77;5.97;;;20.30;99.90;;;;;;4985364;28;20048;-76
2022/08/23 09:48:00;;;;;;;10.98;6.22;;;20.50;99.90;;;;;;4953342;29;20050;-75
2022/08/23 09:50:41;;;;;;;10.30;6.60;;;20.40;99.90;;;;;;4953489;28;20023;-74
2022/08/23 09:53:14;;;;;;;10.38;5.95;;;20.40;99.90;;;;;;4953104;29;20039;-75
2022/08/23 09:55:48;;;;;;;10.45;6.22;;;20.40;99.90;;;;;;4953223;29;20114;-74
2022/08/23 09:58:23;;;;;;;6.25;4.43;;;20.50;99.90;;;;;;4952690;29;20541;-75
2022/08/23 10:01:18;;;;;;;9.73;5.70;;;20.40;99.90;;;;;;4952639;29;20122;-75
2022/08/23 10:04:15;;;;;;;10.82;6.00;;;20.40;99.90;;;;;;4967357;28;20027;-74
2022/08/23 10:06:44;;;;;;;9.95;5.90;;;20.60;99.90;;;;;;4968589;28;20063;-75
2022/08/23 10:09:22;;;;;;;7.15;4.95;;;20.60;99.90;;;;;;4983407;28;20027;-76
2022/08/23 10:11:48;;;;;;;9.32;5.30;;;20.60;99.90;;;;;;4952140;29;20482;-75
2022/08/23 10:14:17;;;;;;;8.57;5.25;;;20.50;99.90;;;;;;4984641;28;20138;-74
2022/08/23 10:17:13;;;;;;;6.82;4.65;;;20.50;99.90;;;;;;4951967;28;20501;-69
2022/08/23 10:19:58;;;;;;;7.57;4.72;;;20.50;99.90;;;;;;4951873;29;20031;-75
2022/08/23 10:22:27;;;;;;;7.70;4.78;;;20.60;99.90;;;;;;4967159;28;20039;-74
2022/08/23 10:25:16;;;;;;;8.15;4.93;;;20.60;99.90;;;;;;4968147;28;20410;-73
2022/08/23 10:30:44;;;;;;;9.50;5.38;;;20.80;99.90;;;;;;4952699;28;20027;-73
2022/08/23 10:33:16;;;;;;;6.80;4.50;;;20.80;99.90;;;;;;4984323;28;20023;-74
2022/08/23 10:35:56;;;;;;;7.45;4.78;;;20.80;99.90;;;;;;4952575;28;20035;-74
2022/08/23 10:38:31;;;;;;;8.25;4.15;;;20.80;99.90;;;;;;4951533;29;20110;-75
2022/08/23 10:41:10;;;;;;;7.13;4.75;;;20.80;99.90;;;;;;4948752;29;20130;-68
2022/08/23 10:44:05;;;;;;;8.82;5.07;;;20.80;99.90;;;;;;4961371;28;20084;-75
2022/08/23 10:46:38;;;;;;;7.45;4.63;;;20.90;99.90;;;;;;4952159;28;20179;-74
2022/08/23 10:49:06;;;;;;;8.32;4.90;;;20.90;99.90;;;;;;4969880;28;20041;-76
2022/08/23 10:51:46;;;;;;;9.02;4.78;;;20.90;99.90;;;;;;4953785;28;20065;-74
2022/08/23 10:54:33;;;;;;;6.53;4.43;;;21.10;99.90;;;;;;4953699;28;20042;-75
2022/08/23 10:57:02;;;;;;;9.82;5.45;;;21.10;99.90;;;;;;4953192;28;20035;-74
2022/08/23 10:59:29;;;;;;;9.43;5.70;;;21.10;99.90;;;;;;4969975;28;20563;-76
2022/08/23 11:02:15;;;;;;;7.53;4.43;;;21.20;99.90;;;;;;4969671;28;20050;-75
2022/08/23 11:05:00;;;;;;;7.80;5.28;;;21.30;99.90;;;;;;4953004;28;20511;-73
2022/08/23 11:07:33;;;;;;;6.28;4.18;;;21.20;99.90;;;;;;4968583;28;20030;-74
2022/08/23 11:10:12;;;;;;;11.10;5.10;;;21.20;99.90;;;;;;4954191;28;20035;-75
2022/08/23 11:13:10;;;;;;;9.38;5.00;;;21.10;99.90;;;;;;4957181;28;20170;-73
2022/08/23 11:15:41;;;;;;;8.93;5.07;;;21.20;99.90;;;;;;4941776;28;20042;-75
2022/08/23 11:18:09;;;;;;;7.45;4.80;;;21.20;99.90;;;;;;4956854;28;20039;-75
2022/08/23 11:20:49;;;;;;;8.18;5.10;;;21.40;99.90;;;;;;4954538;28;20119;-75
2022/08/23 11:23:39;;;;;;;8.02;5.05;;;21.50;99.90;;;;;;4953457;28;20078;-74
2022/08/23 11:26:30;;;;;;;7.97;5.38;;;21.60;99.90;;;;;;4954969;28;20034;-75
2022/08/23 11:29:05;;;;;;;7.63;4.85;;;21.80;99.90;;;;;;4969240;28;20443;-75
2022/08/23 11:31:41;;;;;;;7.20;4.82;;;21.70;99.90;;;;;;4954932;28;20035;-75
2022/08/23 11:34:19;;;;;;;8.30;4.72;;;21.70;99.90;;;;;;4954698;29;20041;-71
2022/08/23 11:37:20;;;;;;;7.55;4.50;;;21.60;99.90;;;;;;4954796;28;20086;-74
2022/08/23 11:40:10;;;;;;;8.52;4.50;;;21.60;99.90;;;;;;4946276;29;20494;-74
2022/08/23 11:42:36;;;;;;;9.00;4.95;;;21.60;99.90;;;;;;4954447;29;20084;-74
2022/08/23 11:45:25;;;;;;;11.38;4.97;;;21.60;99.90;;;;;;4954204;28;20509;-74
2022/08/23 11:48:19;;;;;;;6.95;3.72;;;21.60;99.90;;;;;;4954764;28;20039;-74
2022/08/23 11:50:50;;;;;;;9.57;5.35;;;21.70;99.90;;;;;;4956068;28;20035;-69
2022/08/23 11:53:49;;;;;;;6.07;4.03;;;21.70;99.90;;;;;;4958437;28;20055;-74
2022/08/23 11:56:30;;;;;;;7.72;4.75;;;21.70;99.90;;;;;;4954513;28;20070;-75
2022/08/23 11:59:06;;;;;;;7.90;4.70;;;21.70;99.90;;;;;;4955240;28;20031;-75
2022/08/23 12:01:35;;;;;;;7.47;4.68;;;21.70;99.90;;;;;;4956235;28;20046;-73
2022/08/23 12:04:09;;;;;;;8.52;5.22;;;21.90;99.90;;;;;;4954904;28;20027;-77
2022/08/23 12:06:45;;;;;;;10.38;5.03;;;21.90;99.90;;;;;;4963860;28;20065;-73
2022/08/23 12:09:24;;;;;;;7.45;4.38;;;21.80;99.90;;;;;;4972570;28;20027;-74
2022/08/23 12:11:56;;;;;;;6.07;3.88;;;21.80;99.90;;;;;;4963420;28;20042;-75
2022/08/23 12:14:30;;;;;;;6.90;4.53;;;21.70;99.90;;;;;;4965750;28;20023;-73
2022/08/23 12:17:17;;;;;;;6.65;3.95;;;21.80;99.90;;;;;;4959717;28;20413;-74
2022/08/23 12:19:52;;;;;;;7.32;4.47;;;22.00;99.90;;;;;;4933385;29;20167;-71
2022/08/23 12:22:22;;;;;;;8.05;4.45;;;22.20;99.90;;;;;;4933714;29;20127;-64
2022/08/23 12:24:54;;;;;;;5.75;3.78;;;22.40;99.90;;;;;;4938218;29;20494;-73
2022/08/23 12:27:35;;;;;;;7.28;4.70;;;22.20;99.90;;;;;;4934293;29;20038;-74
2022/08/23 12:30:33;;;;;;;7.20;4.32;;;22.30;99.90;;;;;;4934211;29;20450;-72
2022/08/23 12:33:04;;;;;;;5.97;3.80;;;22.30;99.90;;;;;;4934587;29;20094;-74
2022/08/23 12:35:44;;;;;;;6.93;4.20;;;22.20;99.90;;;;;;4934488;29;20106;-74
2022/08/23 12:38:15;;;;;;;6.53;4.20;;;22.20;99.90;;;;;;4933248;29;20083;-73
2022/08/23 12:40:44;;;;;;;7.60;4.47;;;22.00;99.90;;;;;;4933175;29;20043;-74
2022/08/23 12:43:20;;;;;;;7.00;4.40;;;22.00;99.90;;;;;;4932829;29;20285;-64
2022/08/23 12:45:59;;;;;;;6.20;3.78;;;22.10;99.90;;;;;;4928464;29;20494;-74
2022/08/23 12:48:29;;;;;;;6.55;4.03;;;22.10;99.90;;;;;;4938226;29;20032;-73
2022/08/23 12:51:02;;;;;;;7.03;4.18;;;22.20;99.90;;;;;;4933592;29;20398;-73
2022/08/23 12:53:33;;;;;;;6.85;4.22;;;22.20;99.90;;;;;;4933339;29;20486;-74
2022/08/23 12:56:13;;;;;;;6.47;4.13;;;22.30;99.90;;;;;;4940070;29;20059;-74
2022/08/23 12:58:44;;;;;;;8.00;4.13;;;22.30;99.90;;;;;;4954961;28;20035;-75
2022/08/23 13:01:27;;;;;;;6.68;4.13;;;22.30;99.90;;;;;;4952272;28;20434;-74
2022/08/23 13:04:13;;;;;;;7.43;4.55;;;22.30;99.90;;;;;;4949755;28;20031;-74
2022/08/23 13:06:46;;;;;;;7.38;4.43;;;22.30;99.90;;;;;;4954820;28;20114;-64
2022/08/23 13:09:21;;;;;;;8.27;4.70;;;22.30;99.90;;;;;;4954035;28;20019;-70
2022/08/23 13:11:47;;;;;;;5.70;4.35;;;22.30;99.90;;;;;;4954180;28;20027;-75
2022/08/23 13:14:31;;;;;;;6.47;4.50;;;22.40;99.90;;;;;;4960255;28;20034;-75
2022/08/23 13:17:27;;;;;;;5.95;3.88;;;22.60;99.90;;;;;;4958059;28;20505;-75
2022/08/23 13:20:09;;;;;;;8.07;4.43;;;22.60;99.90;;;;;;4932111;29;20035;-75
2022/08/23 13:22:53;;;;;;;7.45;4.40;;;22.60;99.90;;;;;;4932459;29;20035;-74
2022/08/23 13:25:35;;;;;;;7.70;4.70;;;22.70;99.90;;;;;;4930876;29;20106;-70
2022/08/23 13:28:19;;;;;;;9.52;5.05;;;22.70;99.90;;;;;;4932939;29;20039;-72
2022/08/23 13:30:59;;;;;;;7.47;4.82;;;22.60;99.90;;;;;;4932792;29;20036;-73